Ronald Reagan Washington National Airport
KDCA : now visible

Airfield :











YOU CAN JOIN US ON...

 
LOGIN :

Register | Disclaimer

   EN    FR    IT 

 









Legend :    VFR   Marginal VFR   IFR   Intensive IFR   Very Intensive IFR
Visi :
Ceiling :
>= 8 km
>= 3000ft
5 to 8 km
1000 to 3000 ft
1500m to 5 km
500 to 1000 ft
800 to 1500m
200 to 500 ft
< 800m
< 200 ft
Symbols :   Thunderstorms  Fog  Heavy snow  Heavy precipitations  Wind > 20 kt






- Airport Elevation : 15 ft
- IATA code : DCA


KDCA - Ronald Reagan Washington National

CURRENT METAR :
  • 200252Z 16003KT 10SM OVC018 14/11 A3003 RMK AO2 SLP170 T01390106 58000

EXPIRED METARs :
  • 200152Z 15005KT 10SM OVC018 14/11 A3003 RMK AO2 SLP170 T01390106
  • 200052Z 20004KT 10SM OVC020 13/11 A3004 RMK AO2 SLP173 T01330106
  • 192352Z 19007KT 10SM SCT018 OVC025 13/10 A3003 RMK AO2 SLP170 60001 T01330100 10139 20128 51005

TAF KDCA
Valid from the 20 at 03:00 until the 21 at 06:00 UTC


200255Z 2003/2106 15005KT P6SM OVC018
FM200400 17007KT P6SM VCSH BKN010 OVC020
FM200700 34007KT P6SM VCSH SCT010 OVC025
FM201300 32011G18KT P6SM BKN040
FM201900 30014G23KT P6SM SCT060
KZDC FIR / North America



MET'MAP, your aeronautical weather chart ! - Copyright ORBIFLY December 2007 - Disclaimer

ORBIFLY MET'MAP TEAM :

Programming & Development : Alexandra Zaïnal
Original concept : Baudouin d'Aumeries
Technical & hardware support : Manuel Goepfert
Assistance : Marc-Olivier Méhu




SOURCES & CREDITS :

   NOAA       Earth
Advisory